sensor_id;sensor_type;location;lat;lon;timestamp;temperature;humidity
64012;DHT22;50211;52.768;12.124;2023-01-24T00:00:34;1.40;99.90
64012;DHT22;50211;52.768;12.124;2023-01-24T00:03:00;1.40;99.90
64012;DHT22;50211;52.768;12.124;2023-01-24T00:05:25;1.40;99.90
64012;DHT22;50211;52.768;12.124;2023-01-24T00:07:51;1.40;99.90
64012;DHT22;50211;52.768;12.124;2023-01-24T00:10:17;1.40;99.90
64012;DHT22;50211;52.768;12.124;2023-01-24T00:12:42;1.40;99.90
64012;DHT22;50211;52.768;12.124;2023-01-24T00:15:09;1.40;99.90
64012;DHT22;50211;52.768;12.124;2023-01-24T00:17:35;1.40;99.90
64012;DHT22;50211;52.768;12.124;2023-01-24T00:20:00;1.40;99.90
64012;DHT22;50211;52.768;12.124;2023-01-24T00:22:26;1.40;99.90
64012;DHT22;50211;52.768;12.124;2023-01-24T00:24:51;1.40;99.90
64012;DHT22;50211;52.768;12.124;2023-01-24T00:27:17;1.40;99.90
64012;DHT22;50211;52.768;12.124;2023-01-24T00:29:43;1.40;99.90
64012;DHT22;50211;52.768;12.124;2023-01-24T00:32:08;1.40;99.90
64012;DHT22;50211;52.768;12.124;2023-01-24T00:34:34;1.40;99.90
64012;DHT22;50211;52.768;12.124;2023-01-24T00:37:00;1.40;99.90
64012;DHT22;50211;52.768;12.124;2023-01-24T00:39:25;1.30;99.90
64012;DHT22;50211;52.768;12.124;2023-01-24T00:41:51;1.40;99.90
64012;DHT22;50211;52.768;12.124;2023-01-24T00:44:16;1.40;99.90
64012;DHT22;50211;52.768;12.124;2023-01-24T00:46:42;1.40;99.90
64012;DHT22;50211;52.768;12.124;2023-01-24T00:49:07;1.30;99.90
64012;DHT22;50211;52.768;12.124;2023-01-24T00:51:33;1.30;99.90
64012;DHT22;50211;52.768;12.124;2023-01-24T00:53:59;1.40;99.90
64012;DHT22;50211;52.768;12.124;2023-01-24T00:56:24;1.30;99.90
64012;DHT22;50211;52.768;12.124;2023-01-24T00:58:50;1.30;99.90
64012;DHT22;50211;52.768;12.124;2023-01-24T01:01:16;1.30;99.90
64012;DHT22;50211;52.768;12.124;2023-01-24T01:03:41;1.30;99.90
64012;DHT22;50211;52.768;12.124;2023-01-24T01:06:10;1.40;99.90
64012;DHT22;50211;52.768;12.124;2023-01-24T01:08:37;1.40;99.90
64012;DHT22;50211;52.768;12.124;2023-01-24T01:11:03;1.30;99.90
64012;DHT22;50211;52.768;12.124;2023-01-24T01:13:29;1.30;99.90
64012;DHT22;50211;52.768;12.124;2023-01-24T01:16:06;1.30;99.90
64012;DHT22;50211;52.768;12.124;2023-01-24T01:18:32;1.30;99.90
64012;DHT22;50211;52.768;12.124;2023-01-24T01:20:58;1.30;99.90
64012;DHT22;50211;52.768;12.124;2023-01-24T01:23:23;1.30;99.90
64012;DHT22;50211;52.768;12.124;2023-01-24T01:25:49;1.30;99.90
64012;DHT22;50211;52.768;12.124;2023-01-24T01:28:14;1.30;99.90
64012;DHT22;50211;52.768;12.124;2023-01-24T01:30:40;1.30;99.90
64012;DHT22;50211;52.768;12.124;2023-01-24T01:33:05;1.30;99.90
64012;DHT22;50211;52.768;12.124;2023-01-24T01:35:31;1.30;99.90
64012;DHT22;50211;52.768;12.124;2023-01-24T01:37:56;1.30;99.90
64012;DHT22;50211;52.768;12.124;2023-01-24T01:40:22;1.30;99.90
64012;DHT22;50211;52.768;12.124;2023-01-24T01:42:53;1.30;99.90
64012;DHT22;50211;52.768;12.124;2023-01-24T01:48:46;1.30;99.90
64012;DHT22;50211;52.768;12.124;2023-01-24T01:51:19;1.30;99.90
64012;DHT22;50211;52.768;12.124;2023-01-24T01:54:01;1.20;99.90
64012;DHT22;50211;52.768;12.124;2023-01-24T01:56:43;1.30;99.90
64012;DHT22;50211;52.768;12.124;2023-01-24T01:59:18;1.30;99.90
64012;DHT22;50211;52.768;12.124;2023-01-24T02:01:45;1.30;99.90
64012;DHT22;50211;52.768;12.124;2023-01-24T02:04:19;1.30;99.90
64012;DHT22;50211;52.768;12.124;2023-01-24T02:09:20;1.20;99.90
64012;DHT22;50211;52.768;12.124;2023-01-24T02:11:46;1.20;99.90
64012;DHT22;50211;52.768;12.124;2023-01-24T02:14:15;1.30;99.90
64012;DHT22;50211;52.768;12.124;2023-01-24T02:17:00;1.20;99.90
64012;DHT22;50211;52.768;12.124;2023-01-24T02:20:00;1.30;99.90
64012;DHT22;50211;52.768;12.124;2023-01-24T02:23:05;1.20;99.90
64012;DHT22;50211;52.768;12.124;2023-01-24T02:28:26;1.20;99.90
64012;DHT22;50211;52.768;12.124;2023-01-24T02:30:52;1.20;99.90
64012;DHT22;50211;52.768;12.124;2023-01-24T02:33:21;1.20;99.90
64012;DHT22;50211;52.768;12.124;2023-01-24T02:35:47;1.20;99.90
64012;DHT22;50211;52.768;12.124;2023-01-24T02:38:21;1.20;99.90
64012;DHT22;50211;52.768;12.124;2023-01-24T02:40:51;1.20;99.90
64012;DHT22;50211;52.768;12.124;2023-01-24T02:43:19;1.20;99.90
64012;DHT22;50211;52.768;12.124;2023-01-24T02:45:46;1.20;99.90
64012;DHT22;50211;52.768;12.124;2023-01-24T02:48:11;1.10;99.90
64012;DHT22;50211;52.768;12.124;2023-01-24T02:50:37;1.20;99.90
64012;DHT22;50211;52.768;12.124;2023-01-24T02:53:21;1.20;99.90
64012;DHT22;50211;52.768;12.124;2023-01-24T02:56:03;1.20;99.90
64012;DHT22;50211;52.768;12.124;2023-01-24T02:58:48;1.20;99.90
64012;DHT22;50211;52.768;12.124;2023-01-24T03:01:15;1.10;99.90
64012;DHT22;50211;52.768;12.124;2023-01-24T03:03:42;1.10;99.90
64012;DHT22;50211;52.768;12.124;2023-01-24T03:06:09;1.20;99.90
64012;DHT22;50211;52.768;12.124;2023-01-24T03:08:35;1.20;99.90
64012;DHT22;50211;52.768;12.124;2023-01-24T03:11:01;1.10;99.90
64012;DHT22;50211;52.768;12.124;2023-01-24T03:13:27;1.10;99.90
64012;DHT22;50211;52.768;12.124;2023-01-24T03:16:11;1.10;99.90
64012;DHT22;50211;52.768;12.124;2023-01-24T03:18:55;1.10;99.90
64012;DHT22;50211;52.768;12.124;2023-01-24T03:21:39;1.10;99.90
64012;DHT22;50211;52.768;12.124;2023-01-24T03:24:24;1.00;99.90
64012;DHT22;50211;52.768;12.124;2023-01-24T03:27:09;1.00;99.90
64012;DHT22;50211;52.768;12.124;2023-01-24T03:29:54;1.10;99.90
64012;DHT22;50211;52.768;12.124;2023-01-24T03:32:38;1.00;99.90
64012;DHT22;50211;52.768;12.124;2023-01-24T03:35:23;1.00;99.90
64012;DHT22;50211;52.768;12.124;2023-01-24T03:37:48;1.10;99.90
64012;DHT22;50211;52.768;12.124;2023-01-24T03:40:32;1.10;99.90
64012;DHT22;50211;52.768;12.124;2023-01-24T03:42:59;1.10;99.90
64012;DHT22;50211;52.768;12.124;2023-01-24T03:45:30;1.10;99.90
64012;DHT22;50211;52.768;12.124;2023-01-24T03:47:58;1.10;99.90
64012;DHT22;50211;52.768;12.124;2023-01-24T03:50:34;1.00;99.90
64012;DHT22;50211;52.768;12.124;2023-01-24T03:53:21;1.00;99.90
64012;DHT22;50211;52.768;12.124;2023-01-24T03:55:51;1.00;99.90
64012;DHT22;50211;52.768;12.124;2023-01-24T03:58:17;1.00;99.90
64012;DHT22;50211;52.768;12.124;2023-01-24T04:00:42;1.00;99.90
64012;DHT22;50211;52.768;12.124;2023-01-24T04:03:08;1.00;99.90
64012;DHT22;50211;52.768;12.124;2023-01-24T04:05:34;1.00;99.90
64012;DHT22;50211;52.768;12.124;2023-01-24T04:08:00;1.00;99.90
64012;DHT22;50211;52.768;12.124;2023-01-24T04:10:26;1.00;99.90
64012;DHT22;50211;52.768;12.124;2023-01-24T04:12:53;0.90;99.90
64012;DHT22;50211;52.768;12.124;2023-01-24T04:15:25;0.90;99.90
64012;DHT22;50211;52.768;12.124;2023-01-24T04:17:51;0.90;99.90
64012;DHT22;50211;52.768;12.124;2023-01-24T04:20:20;1.00;99.90
64012;DHT22;50211;52.768;12.124;2023-01-24T04:22:45;1.00;99.90
64012;DHT22;50211;52.768;12.124;2023-01-24T04:25:11;0.90;99.90
64012;DHT22;50211;52.768;12.124;2023-01-24T04:27:36;0.90;99.90
64012;DHT22;50211;52.768;12.124;2023-01-24T04:30:07;0.90;99.90
64012;DHT22;50211;52.768;12.124;2023-01-24T04:32:33;0.90;99.90
64012;DHT22;50211;52.768;12.124;2023-01-24T04:34:59;0.90;99.90
64012;DHT22;50211;52.768;12.124;2023-01-24T04:37:26;0.80;99.90
64012;DHT22;50211;52.768;12.124;2023-01-24T04:39:51;0.70;99.90
64012;DHT22;50211;52.768;12.124;2023-01-24T04:42:17;0.70;99.90
64012;DHT22;50211;52.768;12.124;2023-01-24T04:44:42;0.80;99.90
64012;DHT22;50211;52.768;12.124;2023-01-24T04:47:08;0.70;99.90
64012;DHT22;50211;52.768;12.124;2023-01-24T04:49:33;0.70;99.90
64012;DHT22;50211;52.768;12.124;2023-01-24T04:51:59;0.80;99.90
64012;DHT22;50211;52.768;12.124;2023-01-24T04:54:24;0.80;99.90
64012;DHT22;50211;52.768;12.124;2023-01-24T04:56:50;0.80;99.90
64012;DHT22;50211;52.768;12.124;2023-01-24T04:59:16;0.70;99.90
64012;DHT22;50211;52.768;12.124;2023-01-24T05:01:41;0.70;99.90
64012;DHT22;50211;52.768;12.124;2023-01-24T05:04:07;0.70;99.90
64012;DHT22;50211;52.768;12.124;2023-01-24T05:06:33;0.70;99.90
64012;DHT22;50211;52.768;12.124;2023-01-24T05:08:59;0.70;99.90
64012;DHT22;50211;52.768;12.124;2023-01-24T05:11:25;0.70;99.90
64012;DHT22;50211;52.768;12.124;2023-01-24T05:13:51;0.70;99.90
64012;DHT22;50211;52.768;12.124;2023-01-24T05:16:17;0.70;99.90
64012;DHT22;50211;52.768;12.124;2023-01-24T05:18:43;0.70;99.90
64012;DHT22;50211;52.768;12.124;2023-01-24T05:21:11;0.70;99.90
64012;DHT22;50211;52.768;12.124;2023-01-24T05:23:38;0.70;99.90
64012;DHT22;50211;52.768;12.124;2023-01-24T05:26:03;0.70;99.90
64012;DHT22;50211;52.768;12.124;2023-01-24T05:28:29;0.70;99.90
64012;DHT22;50211;52.768;12.124;2023-01-24T05:31:03;0.70;99.90
64012;DHT22;50211;52.768;12.124;2023-01-24T05:33:29;0.70;99.90
64012;DHT22;50211;52.768;12.124;2023-01-24T05:36:03;0.60;99.90
64012;DHT22;50211;52.768;12.124;2023-01-24T05:38:29;0.60;99.90
64012;DHT22;50211;52.768;12.124;2023-01-24T05:40:59;0.60;99.90
64012;DHT22;50211;52.768;12.124;2023-01-24T05:43:25;0.60;99.90
64012;DHT22;50211;52.768;12.124;2023-01-24T05:45:50;0.60;99.90
64012;DHT22;50211;52.768;12.124;2023-01-24T05:48:16;0.60;99.90
64012;DHT22;50211;52.768;12.124;2023-01-24T05:50:41;0.60;99.90
64012;DHT22;50211;52.768;12.124;2023-01-24T05:53:07;0.60;99.90
64012;DHT22;50211;52.768;12.124;2023-01-24T05:55:32;0.60;99.90
64012;DHT22;50211;52.768;12.124;2023-01-24T05:57:59;0.60;99.90
64012;DHT22;50211;52.768;12.124;2023-01-24T06:00:25;0.60;99.90
64012;DHT22;50211;52.768;12.124;2023-01-24T06:02:51;0.60;99.90
64012;DHT22;50211;52.768;12.124;2023-01-24T06:05:16;0.60;99.90
64012;DHT22;50211;52.768;12.124;2023-01-24T06:07:42;0.60;99.90
64012;DHT22;50211;52.768;12.124;2023-01-24T06:10:08;0.60;99.90
64012;DHT22;50211;52.768;12.124;2023-01-24T06:12:33;0.60;99.90
64012;DHT22;50211;52.768;12.124;2023-01-24T06:14:59;0.60;99.90
64012;DHT22;50211;52.768;12.124;2023-01-24T06:17:24;0.60;99.90
64012;DHT22;50211;52.768;12.124;2023-01-24T06:19:50;0.60;99.90
64012;DHT22;50211;52.768;12.124;2023-01-24T06:22:36;0.50;99.90
64012;DHT22;50211;52.768;12.124;2023-01-24T06:25:04;0.50;99.90
64012;DHT22;50211;52.768;12.124;2023-01-24T06:27:29;0.50;99.90
64012;DHT22;50211;52.768;12.124;2023-01-24T06:29:55;0.50;99.90
64012;DHT22;50211;52.768;12.124;2023-01-24T06:37:55;0.50;99.90
64012;DHT22;50211;52.768;12.124;2023-01-24T06:40:24;0.50;99.90
64012;DHT22;50211;52.768;12.124;2023-01-24T06:42:50;0.60;99.90
64012;DHT22;50211;52.768;12.124;2023-01-24T06:45:16;0.50;99.90
64012;DHT22;50211;52.768;12.124;2023-01-24T06:47:42;0.40;99.90
64012;DHT22;50211;52.768;12.124;2023-01-24T06:50:20;0.50;99.90
64012;DHT22;50211;52.768;12.124;2023-01-24T06:52:47;0.40;99.90
64012;DHT22;50211;52.768;12.124;2023-01-24T06:55:13;0.40;99.90
64012;DHT22;50211;52.768;12.124;2023-01-24T06:57:38;0.50;99.90
64012;DHT22;50211;52.768;12.124;2023-01-24T07:00:04;0.50;99.90
64012;DHT22;50211;52.768;12.124;2023-01-24T07:02:30;0.50;99.90
64012;DHT22;50211;52.768;12.124;2023-01-24T07:04:56;0.50;99.90
64012;DHT22;50211;52.768;12.124;2023-01-24T07:07:21;0.50;99.90
64012;DHT22;50211;52.768;12.124;2023-01-24T07:09:47;0.40;99.90
64012;DHT22;50211;52.768;12.124;2023-01-24T07:12:12;0.30;99.90
64012;DHT22;50211;52.768;12.124;2023-01-24T07:14:38;0.30;99.90
64012;DHT22;50211;52.768;12.124;2023-01-24T07:17:04;0.30;99.90
64012;DHT22;50211;52.768;12.124;2023-01-24T07:19:29;0.40;99.90
64012;DHT22;50211;52.768;12.124;2023-01-24T07:21:55;0.40;99.90
64012;DHT22;50211;52.768;12.124;2023-01-24T07:24:25;0.40;99.90
64012;DHT22;50211;52.768;12.124;2023-01-24T07:26:51;0.50;99.90
64012;DHT22;50211;52.768;12.124;2023-01-24T07:29:21;0.40;99.90
64012;DHT22;50211;52.768;12.124;2023-01-24T07:31:47;0.40;99.90
64012;DHT22;50211;52.768;12.124;2023-01-24T07:34:14;0.40;99.90
64012;DHT22;50211;52.768;12.124;2023-01-24T07:36:46;0.40;99.90
64012;DHT22;50211;52.768;12.124;2023-01-24T07:39:13;0.40;99.90
64012;DHT22;50211;52.768;12.124;2023-01-24T07:41:38;0.40;99.90
64012;DHT22;50211;52.768;12.124;2023-01-24T07:44:11;0.40;99.90
64012;DHT22;50211;52.768;12.124;2023-01-24T07:46:36;0.40;99.90
64012;DHT22;50211;52.768;12.124;2023-01-24T07:49:03;0.30;99.90
64012;DHT22;50211;52.768;12.124;2023-01-24T07:51:28;0.30;99.90
64012;DHT22;50211;52.768;12.124;2023-01-24T07:53:54;0.30;99.90
64012;DHT22;50211;52.768;12.124;2023-01-24T07:56:19;0.20;99.90
64012;DHT22;50211;52.768;12.124;2023-01-24T07:58:45;0.20;99.90
64012;DHT22;50211;52.768;12.124;2023-01-24T08:01:17;0.30;99.90
64012;DHT22;50211;52.768;12.124;2023-01-24T08:03:42;0.30;99.90
64012;DHT22;50211;52.768;12.124;2023-01-24T08:06:08;0.30;99.90
64012;DHT22;50211;52.768;12.124;2023-01-24T08:08:33;0.30;99.90
64012;DHT22;50211;52.768;12.124;2023-01-24T08:10:59;0.40;99.90
64012;DHT22;50211;52.768;12.124;2023-01-24T08:13:24;0.40;99.90
64012;DHT22;50211;52.768;12.124;2023-01-24T08:15:50;0.40;99.90
64012;DHT22;50211;52.768;12.124;2023-01-24T08:18:15;0.40;99.90
64012;DHT22;50211;52.768;12.124;2023-01-24T08:20:41;0.40;99.90
64012;DHT22;50211;52.768;12.124;2023-01-24T08:23:06;0.40;99.90
64012;DHT22;50211;52.768;12.124;2023-01-24T08:25:32;0.40;99.90
64012;DHT22;50211;52.768;12.124;2023-01-24T08:27:59;0.30;99.90
64012;DHT22;50211;52.768;12.124;2023-01-24T08:30:25;0.30;99.90
64012;DHT22;50211;52.768;12.124;2023-01-24T08:32:59;0.20;99.90
64012;DHT22;50211;52.768;12.124;2023-01-24T08:35:24;0.30;99.90
64012;DHT22;50211;52.768;12.124;2023-01-24T08:37:50;0.40;99.90
64012;DHT22;50211;52.768;12.124;2023-01-24T08:40:15;0.30;99.90
64012;DHT22;50211;52.768;12.124;2023-01-24T08:42:41;0.30;99.90
64012;DHT22;50211;52.768;12.124;2023-01-24T08:45:07;0.30;99.90
64012;DHT22;50211;52.768;12.124;2023-01-24T08:47:33;0.30;99.90
64012;DHT22;50211;52.768;12.124;2023-01-24T08:49:58;0.30;99.90
64012;DHT22;50211;52.768;12.124;2023-01-24T08:52:23;0.30;99.90
64012;DHT22;50211;52.768;12.124;2023-01-24T08:54:49;0.30;99.90
64012;DHT22;50211;52.768;12.124;2023-01-24T08:57:14;0.40;99.90
64012;DHT22;50211;52.768;12.124;2023-01-24T08:59:40;0.40;99.90
64012;DHT22;50211;52.768;12.124;2023-01-24T09:02:06;0.40;99.90
64012;DHT22;50211;52.768;12.124;2023-01-24T09:04:31;0.50;99.90
64012;DHT22;50211;52.768;12.124;2023-01-24T09:06:57;0.50;99.90
64012;DHT22;50211;52.768;12.124;2023-01-24T09:09:22;0.50;99.90
64012;DHT22;50211;52.768;12.124;2023-01-24T09:11:49;0.40;99.90
64012;DHT22;50211;52.768;12.124;2023-01-24T09:14:15;0.50;99.90
64012;DHT22;50211;52.768;12.124;2023-01-24T09:16:40;0.50;99.90
64012;DHT22;50211;52.768;12.124;2023-01-24T09:19:06;0.50;99.90
64012;DHT22;50211;52.768;12.124;2023-01-24T09:21:32;0.50;99.90
64012;DHT22;50211;52.768;12.124;2023-01-24T09:23:57;0.50;99.90
64012;DHT22;50211;52.768;12.124;2023-01-24T09:26:24;0.60;99.90
64012;DHT22;50211;52.768;12.124;2023-01-24T09:28:50;0.60;99.90
64012;DHT22;50211;52.768;12.124;2023-01-24T09:31:15;0.50;99.90
64012;DHT22;50211;52.768;12.124;2023-01-24T09:33:41;0.50;99.90
64012;DHT22;50211;52.768;12.124;2023-01-24T09:36:07;0.50;99.90
64012;DHT22;50211;52.768;12.124;2023-01-24T09:38:34;0.50;99.90
64012;DHT22;50211;52.768;12.124;2023-01-24T09:41:26;0.60;99.90
64012;DHT22;50211;52.768;12.124;2023-01-24T09:44:00;0.60;99.90
64012;DHT22;50211;52.768;12.124;2023-01-24T09:46:36;0.60;99.90
64012;DHT22;50211;52.768;12.124;2023-01-24T09:50:01;0.60;99.90
64012;DHT22;50211;52.768;12.124;2023-01-24T09:52:02;0.70;99.90
64012;DHT22;50211;52.768;12.124;2023-01-24T09:54:47;0.70;99.90
64012;DHT22;50211;52.768;12.124;2023-01-24T09:57:24;0.70;99.90
64012;DHT22;50211;52.768;12.124;2023-01-24T09:59:56;0.80;99.90
64012;DHT22;50211;52.768;12.124;2023-01-24T10:02:24;0.90;99.90
64012;DHT22;50211;52.768;12.124;2023-01-24T10:04:52;0.80;99.90
64012;DHT22;50211;52.768;12.124;2023-01-24T10:12:44;0.70;99.90
64012;DHT22;50211;52.768;12.124;2023-01-24T10:15:37;0.70;99.90
64012;DHT22;50211;52.768;12.124;2023-01-24T10:21:27;0.70;99.90
64012;DHT22;50211;52.768;12.124;2023-01-24T10:23:59;0.60;99.90
64012;DHT22;50211;52.768;12.124;2023-01-24T10:26:38;0.60;99.90
64012;DHT22;50211;52.768;12.124;2023-01-24T10:31:43;0.80;99.90
64012;DHT22;50211;52.768;12.124;2023-01-24T10:34:18;0.80;99.90
64012;DHT22;50211;52.768;12.124;2023-01-24T10:36:51;0.80;99.90
64012;DHT22;50211;52.768;12.124;2023-01-24T10:39:18;0.90;99.90
64012;DHT22;50211;52.768;12.124;2023-01-24T10:41:44;0.90;99.90
64012;DHT22;50211;52.768;12.124;2023-01-24T10:46:42;0.90;99.90
64012;DHT22;50211;52.768;12.124;2023-01-24T10:49:17;0.80;99.90
64012;DHT22;50211;52.768;12.124;2023-01-24T10:52:07;0.80;99.90
64012;DHT22;50211;52.768;12.124;2023-01-24T10:57:37;0.80;99.90
64012;DHT22;50211;52.768;12.124;2023-01-24T11:02:50;0.80;99.90
64012;DHT22;50211;52.768;12.124;2023-01-24T11:05:18;0.90;99.90
64012;DHT22;50211;52.768;12.124;2023-01-24T11:08:02;0.90;99.90
64012;DHT22;50211;52.768;12.124;2023-01-24T11:10:37;1.00;99.90
64012;DHT22;50211;52.768;12.124;2023-01-24T11:15:54;1.10;99.90
64012;DHT22;50211;52.768;12.124;2023-01-24T11:18:24;1.20;99.90
64012;DHT22;50211;52.768;12.124;2023-01-24T11:23:30;1.20;99.90
64012;DHT22;50211;52.768;12.124;2023-01-24T11:26:01;1.30;99.90
64012;DHT22;50211;52.768;12.124;2023-01-24T11:28:29;1.20;99.90
64012;DHT22;50211;52.768;12.124;2023-01-24T11:30:58;1.20;99.90
64012;DHT22;50211;52.768;12.124;2023-01-24T11:33:37;1.20;99.90
64012;DHT22;50211;52.768;12.124;2023-01-24T11:36:28;1.30;99.90
64012;DHT22;50211;52.768;12.124;2023-01-24T11:39:00;1.30;99.90
64012;DHT22;50211;52.768;12.124;2023-01-24T11:41:32;1.20;99.90
64012;DHT22;50211;52.768;12.124;2023-01-24T11:44:30;1.30;99.90
64012;DHT22;50211;52.768;12.124;2023-01-24T11:47:15;1.30;99.90
64012;DHT22;50211;52.768;12.124;2023-01-24T11:58:15;1.50;99.90
64012;DHT22;50211;52.768;12.124;2023-01-24T12:00:51;1.60;99.90
64012;DHT22;50211;52.768;12.124;2023-01-24T12:03:43;1.60;99.90
64012;DHT22;50211;52.768;12.124;2023-01-24T12:06:34;1.70;99.90
64012;DHT22;50211;52.768;12.124;2023-01-24T12:11:43;1.70;99.90
64012;DHT22;50211;52.768;12.124;2023-01-24T12:17:02;1.60;99.90
64012;DHT22;50211;52.768;12.124;2023-01-24T12:22:17;1.60;99.90
64012;DHT22;50211;52.768;12.124;2023-01-24T12:24:46;1.70;99.90
64012;DHT22;50211;52.768;12.124;2023-01-24T12:27:16;1.70;99.90
64012;DHT22;50211;52.768;12.124;2023-01-24T12:29:47;1.70;99.90
64012;DHT22;50211;52.768;12.124;2023-01-24T12:32:23;1.70;99.90
64012;DHT22;50211;52.768;12.124;2023-01-24T12:38:01;1.60;99.90
64012;DHT22;50211;52.768;12.124;2023-01-24T12:40:55;1.60;99.90
64012;DHT22;50211;52.768;12.124;2023-01-24T12:51:56;1.60;99.90
64012;DHT22;50211;52.768;12.124;2023-01-24T12:54:35;1.60;99.90
64012;DHT22;50211;52.768;12.124;2023-01-24T12:57:04;1.70;99.90
64012;DHT22;50211;52.768;12.124;2023-01-24T12:59:33;1.60;99.90
64012;DHT22;50211;52.768;12.124;2023-01-24T13:10:12;1.60;99.90
64012;DHT22;50211;52.768;12.124;2023-01-24T13:12:43;1.60;99.90
64012;DHT22;50211;52.768;12.124;2023-01-24T13:15:34;1.70;99.90
64012;DHT22;50211;52.768;12.124;2023-01-24T13:18:27;1.70;99.90
64012;DHT22;50211;52.768;12.124;2023-01-24T13:21:01;1.70;99.90
64012;DHT22;50211;52.768;12.124;2023-01-24T13:24:05;1.60;99.90
64012;DHT22;50211;52.768;12.124;2023-01-24T13:27:10;1.60;99.90
64012;DHT22;50211;52.768;12.124;2023-01-24T13:32:36;1.70;99.90
64012;DHT22;50211;52.768;12.124;2023-01-24T13:35:18;1.60;99.90
64012;DHT22;50211;52.768;12.124;2023-01-24T13:37:53;1.60;99.90
64012;DHT22;50211;52.768;12.124;2023-01-24T13:40:28;1.60;99.90
64012;DHT22;50211;52.768;12.124;2023-01-24T13:43:00;1.50;99.90
64012;DHT22;50211;52.768;12.124;2023-01-24T13:45:40;1.50;99.90
64012;DHT22;50211;52.768;12.124;2023-01-24T13:54:15;1.40;99.90
64012;DHT22;50211;52.768;12.124;2023-01-24T13:59:29;1.60;99.90
64012;DHT22;50211;52.768;12.124;2023-01-24T14:01:54;1.60;99.90
64012;DHT22;50211;52.768;12.124;2023-01-24T14:04:39;1.60;99.90
64012;DHT22;50211;52.768;12.124;2023-01-24T14:07:17;1.60;99.90
64012;DHT22;50211;52.768;12.124;2023-01-24T14:09:45;1.60;99.90
64012;DHT22;50211;52.768;12.124;2023-01-24T14:12:16;1.50;99.90
64012;DHT22;50211;52.768;12.124;2023-01-24T14:15:00;1.50;99.90
64012;DHT22;50211;52.768;12.124;2023-01-24T14:20:29;1.50;99.90
64012;DHT22;50211;52.768;12.124;2023-01-24T14:23:00;1.40;99.90
64012;DHT22;50211;52.768;12.124;2023-01-24T14:28:01;1.40;99.90
64012;DHT22;50211;52.768;12.124;2023-01-24T14:30:46;1.40;99.90
64012;DHT22;50211;52.768;12.124;2023-01-24T14:33:33;1.40;99.90
64012;DHT22;50211;52.768;12.124;2023-01-24T14:36:19;1.40;99.90
64012;DHT22;50211;52.768;12.124;2023-01-24T14:38:45;1.40;99.90
64012;DHT22;50211;52.768;12.124;2023-01-24T14:41:20;1.30;99.90
64012;DHT22;50211;52.768;12.124;2023-01-24T14:43:47;1.30;99.90
64012;DHT22;50211;52.768;12.124;2023-01-24T14:46:21;1.40;99.90
64012;DHT22;50211;52.768;12.124;2023-01-24T14:48:48;1.30;99.90
64012;DHT22;50211;52.768;12.124;2023-01-24T14:51:21;1.30;99.90
64012;DHT22;50211;52.768;12.124;2023-01-24T14:53:52;1.30;99.90
64012;DHT22;50211;52.768;12.124;2023-01-24T14:56:19;1.20;99.90
64012;DHT22;50211;52.768;12.124;2023-01-24T14:58:45;1.20;99.90
64012;DHT22;50211;52.768;12.124;2023-01-24T15:01:29;1.20;99.90
64012;DHT22;50211;52.768;12.124;2023-01-24T15:03:56;1.20;99.90
64012;DHT22;50211;52.768;12.124;2023-01-24T15:06:23;1.20;99.90
64012;DHT22;50211;52.768;12.124;2023-01-24T15:08:56;1.20;99.90
64012;DHT22;50211;52.768;12.124;2023-01-24T15:11:28;1.10;99.90
64012;DHT22;50211;52.768;12.124;2023-01-24T15:14:17;1.10;99.90
64012;DHT22;50211;52.768;12.124;2023-01-24T15:16:51;1.10;99.90
64012;DHT22;50211;52.768;12.124;2023-01-24T15:19:24;1.10;99.90
64012;DHT22;50211;52.768;12.124;2023-01-24T15:21:52;1.10;99.90
64012;DHT22;50211;52.768;12.124;2023-01-24T15:24:28;1.10;99.90
64012;DHT22;50211;52.768;12.124;2023-01-24T15:26:56;1.10;99.90
64012;DHT22;50211;52.768;12.124;2023-01-24T15:29:48;1.10;99.90
64012;DHT22;50211;52.768;12.124;2023-01-24T15:32:38;1.00;99.90
64012;DHT22;50211;52.768;12.124;2023-01-24T15:35:30;0.90;99.90
64012;DHT22;50211;52.768;12.124;2023-01-24T15:40:36;0.90;99.90
64012;DHT22;50211;52.768;12.124;2023-01-24T15:43:02;0.90;99.90
64012;DHT22;50211;52.768;12.124;2023-01-24T15:45:50;0.80;99.90
64012;DHT22;50211;52.768;12.124;2023-01-24T15:48:37;0.80;99.90
64012;DHT22;50211;52.768;12.124;2023-01-24T15:51:02;0.80;99.90
64012;DHT22;50211;52.768;12.124;2023-01-24T15:53:31;0.80;99.90
64012;DHT22;50211;52.768;12.124;2023-01-24T15:56:01;0.70;99.90
64012;DHT22;50211;52.768;12.124;2023-01-24T15:58:28;0.60;99.90
64012;DHT22;50211;52.768;12.124;2023-01-24T16:00:56;0.60;99.90
64012;DHT22;50211;52.768;12.124;2023-01-24T16:03:21;0.60;99.90
64012;DHT22;50211;52.768;12.124;2023-01-24T16:05:47;0.70;99.90
64012;DHT22;50211;52.768;12.124;2023-01-24T16:08:12;0.70;99.90
64012;DHT22;50211;52.768;12.124;2023-01-24T16:10:39;0.70;99.90
64012;DHT22;50211;52.768;12.124;2023-01-24T16:13:05;0.70;99.90
64012;DHT22;50211;52.768;12.124;2023-01-24T16:15:31;0.70;99.90
64012;DHT22;50211;52.768;12.124;2023-01-24T16:17:56;0.70;99.90
64012;DHT22;50211;52.768;12.124;2023-01-24T16:20:24;0.70;99.90
64012;DHT22;50211;52.768;12.124;2023-01-24T16:22:52;0.60;99.90
64012;DHT22;50211;52.768;12.124;2023-01-24T16:25:18;0.60;99.90
64012;DHT22;50211;52.768;12.124;2023-01-24T16:27:48;0.60;99.90
64012;DHT22;50211;52.768;12.124;2023-01-24T16:30:22;0.60;99.90
64012;DHT22;50211;52.768;12.124;2023-01-24T16:32:48;0.60;99.90
64012;DHT22;50211;52.768;12.124;2023-01-24T16:35:14;0.60;99.90
64012;DHT22;50211;52.768;12.124;2023-01-24T16:37:40;0.60;99.90
64012;DHT22;50211;52.768;12.124;2023-01-24T16:40:09;0.50;99.90
64012;DHT22;50211;52.768;12.124;2023-01-24T16:42:39;0.50;99.90
64012;DHT22;50211;52.768;12.124;2023-01-24T16:45:05;0.50;99.90
64012;DHT22;50211;52.768;12.124;2023-01-24T16:47:32;0.30;99.90
64012;DHT22;50211;52.768;12.124;2023-01-24T16:49:57;0.30;99.90
64012;DHT22;50211;52.768;12.124;2023-01-24T16:52:24;0.40;99.90
64012;DHT22;50211;52.768;12.124;2023-01-24T16:54:51;0.40;99.90
64012;DHT22;50211;52.768;12.124;2023-01-24T16:57:16;0.40;99.90
64012;DHT22;50211;52.768;12.124;2023-01-24T16:59:42;0.50;99.90
64012;DHT22;50211;52.768;12.124;2023-01-24T17:02:09;0.40;99.90
64012;DHT22;50211;52.768;12.124;2023-01-24T17:04:35;0.40;99.90
64012;DHT22;50211;52.768;12.124;2023-01-24T17:07:01;0.40;99.90
64012;DHT22;50211;52.768;12.124;2023-01-24T17:09:31;0.40;99.90
64012;DHT22;50211;52.768;12.124;2023-01-24T17:11:58;0.40;99.90
64012;DHT22;50211;52.768;12.124;2023-01-24T17:14:24;0.40;99.90
64012;DHT22;50211;52.768;12.124;2023-01-24T17:16:49;0.40;99.90
64012;DHT22;50211;52.768;12.124;2023-01-24T17:19:15;0.40;99.90
64012;DHT22;50211;52.768;12.124;2023-01-24T17:21:41;0.40;99.90
64012;DHT22;50211;52.768;12.124;2023-01-24T17:24:08;0.30;99.90